Time;durP1;ratioP1;P1;durP2;ratioP2;P2;SDS_P1;SDS_P2;PMS_P1;PMS_P2;Temp;Humidity;BMP_temperature;BMP_pressure;BME280_temperature;BME280_humidity;BME280_pressure;Samples;Min_cycle;Max_cycle;Signal;HPM_P1;HPM_P2
2022/12/26 00:01:52;;;;;;;;;23.80;23.80;;;;;;;;5204585;28;8904;-72
2022/12/26 00:04:23;;;;;;;;;29.80;29.80;;;;;;;;5186646;28;8811;-74
2022/12/26 00:06:54;;;;;;;;;24.80;24.80;;;;;;;;5190846;28;8795;-75
2022/12/26 00:09:25;;;;;;;;;10.00;10.00;;;;;;;;5207247;28;8895;-73
2022/12/26 00:11:56;;;;;;;;;8.40;8.40;;;;;;;;5207299;28;8787;-73
2022/12/26 00:14:28;;;;;;;;;7.80;6.40;;;;;;;;5227110;28;9502;-73
2022/12/26 00:16:59;;;;;;;;;2.20;2.20;;;;;;;;5211056;28;8783;-73
2022/12/26 00:19:30;;;;;;;;;2.80;2.80;;;;;;;;5211060;28;8826;-73
2022/12/26 00:22:01;;;;;;;;;5.60;4.20;;;;;;;;5194274;28;8941;-74
2022/12/26 00:24:32;;;;;;;;;1.40;1.40;;;;;;;;5228561;28;8795;-74
2022/12/26 00:27:03;;;;;;;;;0.80;0.40;;;;;;;;5228622;28;8847;-73
2022/12/26 00:29:34;;;;;;;;;1.00;1.00;;;;;;;;5194456;28;8787;-73
2022/12/26 00:32:05;;;;;;;;;1.00;1.00;;;;;;;;5193890;28;8786;-73
2022/12/26 00:34:36;;;;;;;;;3.60;3.60;;;;;;;;5194508;28;8779;-73
2022/12/26 00:37:07;;;;;;;;;29.50;29.50;;;;;;;;5210616;28;8925;-73
2022/12/26 00:39:38;;;;;;;;;51.00;43.60;;;;;;;;5210014;28;8967;-73
2022/12/26 00:42:09;;;;;;;;;71.00;56.00;;;;;;;;5210457;28;8901;-74
2022/12/26 00:44:59;;;;;;;;;79.60;64.20;;;;;;;;5228709;28;8763;-74
2022/12/26 00:47:48;;;;;;;;;33.40;29.20;;;;;;;;5213215;28;8778;-74
2022/12/26 00:50:19;;;;;;;;;47.60;43.00;;;;;;;;5210140;28;8791;-74
2022/12/26 00:52:50;;;;;;;;;73.00;56.75;;;;;;;;5194018;28;8805;-73
2022/12/26 00:55:21;;;;;;;;;79.60;59.20;;;;;;;;5193833;28;11544;-73
2022/12/26 00:57:52;;;;;;;;;75.75;62.75;;;;;;;;5228198;28;8783;-73
2022/12/26 01:00:24;;;;;;;;;68.60;56.20;;;;;;;;5193638;28;10254;-74
2022/12/26 01:02:55;;;;;;;;;59.00;48.40;;;;;;;;5172686;28;8805;-75
2022/12/26 01:05:27;;;;;;;;;33.60;26.00;;;;;;;;5173557;28;8805;-74
2022/12/26 01:07:58;;;;;;;;;30.40;28.60;;;;;;;;5190911;28;9445;-73
2022/12/26 01:10:29;;;;;;;;;40.00;37.20;;;;;;;;5197695;28;8799;-74
2022/12/26 01:13:00;;;;;;;;;46.00;36.40;;;;;;;;5181899;28;8781;-74
2022/12/26 01:15:32;;;;;;;;;39.40;37.80;;;;;;;;5197498;28;8825;-73
2022/12/26 01:18:04;;;;;;;;;19.60;19.20;;;;;;;;5204952;28;8795;-76
2022/12/26 01:20:37;;;;;;;;;13.00;13.00;;;;;;;;5177439;28;8823;-75
2022/12/26 01:23:08;;;;;;;;;13.40;12.60;;;;;;;;5193280;28;8790;-76
2022/12/26 01:25:39;;;;;;;;;4.40;4.40;;;;;;;;5209504;28;8802;-76
2022/12/26 01:28:10;;;;;;;;;4.40;4.40;;;;;;;;5193357;28;8860;-77
2022/12/26 01:30:42;;;;;;;;;9.00;9.00;;;;;;;;5192953;28;8841;-75
2022/12/26 01:33:31;;;;;;;;;10.40;10.40;;;;;;;;5227239;28;8823;-76
2022/12/26 01:36:02;;;;;;;;;3.20;3.20;;;;;;;;5209642;28;8904;-76
2022/12/26 01:38:34;;;;;;;;;2.80;2.80;;;;;;;;5227484;28;8818;-76
2022/12/26 01:41:18;;;;;;;;;4.80;4.80;;;;;;;;5209366;28;8810;-74
2022/12/26 01:43:54;;;;;;;;;2.60;2.60;;;;;;;;5192902;28;8834;-74
2022/12/26 01:46:39;;;;;;;;;4.00;4.00;;;;;;;;5193111;28;8783;-73
2022/12/26 01:49:29;;;;;;;;;4.40;4.40;;;;;;;;5211325;28;8826;-73
2022/12/26 01:52:02;;;;;;;;;5.80;5.80;;;;;;;;5227153;28;8933;-73
2022/12/26 01:54:36;;;;;;;;;5.60;5.60;;;;;;;;5227073;28;8832;-73
2022/12/26 01:57:30;;;;;;;;;5.80;5.80;;;;;;;;5211340;28;8787;-73
2022/12/26 02:00:01;;;;;;;;;6.40;6.40;;;;;;;;5208820;28;8803;-72
2022/12/26 02:05:32;;;;;;;;;6.40;6.40;;;;;;;;5208789;28;8861;-73
2022/12/26 02:05:44;;;;;;;;;14.60;14.60;;;;;;;;5226634;28;8787;-73
2022/12/26 02:08:23;;;;;;;;;13.20;13.00;;;;;;;;5192349;28;8928;-73
2022/12/26 02:10:57;;;;;;;;;10.00;10.00;;;;;;;;5208826;28;8807;-72
2022/12/26 02:13:29;;;;;;;;;10.80;10.80;;;;;;;;5209054;28;8787;-73
2022/12/26 02:16:03;;;;;;;;;7.00;7.00;;;;;;;;5208905;28;8798;-73
2022/12/26 02:18:34;;;;;;;;;6.00;6.00;;;;;;;;5208333;28;8854;-73
2022/12/26 02:21:08;;;;;;;;;0.20;0.20;;;;;;;;5226993;28;8799;-73
2022/12/26 02:23:51;;;;;;;;;5.20;5.20;;;;;;;;5191848;28;9556;-72
2022/12/26 02:26:40;;;;;;;;;2.20;2.20;;;;;;;;5208008;28;8806;-73
2022/12/26 02:29:27;;;;;;;;;5.20;5.20;;;;;;;;5189002;28;8896;-73
2022/12/26 02:32:07;;;;;;;;;5.80;5.80;;;;;;;;5205915;28;8765;-72
2022/12/26 02:34:57;;;;;;;;;0.00;0.00;;;;;;;;5205804;28;9552;-73
2022/12/26 02:37:46;;;;;;;;;8.80;8.80;;;;;;;;5187124;28;8855;-73
2022/12/26 02:40:17;;;;;;;;;7.00;7.00;;;;;;;;5171974;28;8841;-72
2022/12/26 02:42:58;;;;;;;;;25.00;25.00;;;;;;;;5205964;28;8888;-73
2022/12/26 02:48:35;;;;;;;;;17.20;16.40;;;;;;;;5208050;28;8795;-72
2022/12/26 03:18:27;;;;;;;;;7.60;6.40;;;;;;;;5218605;28;9493;-74
2022/12/26 03:21:19;;;;;;;;;8.60;8.60;;;;;;;;5187560;28;8925;-74
2022/12/26 03:23:52;;;;;;;;;10.00;10.00;;;;;;;;5189224;28;8909;-74
2022/12/26 03:26:53;;;;;;;;;9.20;9.20;;;;;;;;5190089;28;8829;-73
2022/12/26 03:32:40;;;;;;;;;13.80;13.80;;;;;;;;5186605;28;8824;-73
2022/12/26 03:35:13;;;;;;;;;12.00;12.00;;;;;;;;5203975;28;8769;-74
2022/12/26 03:38:16;;;;;;;;;18.00;18.00;;;;;;;;5223631;28;8787;-74
2022/12/26 04:19:59;;;;;;;;;5.40;5.20;;;;;;;;5229001;28;8857;-69
2022/12/26 04:44:17;;;;;;;;;15.60;15.60;;;;;;;;5210141;28;8790;-73
2022/12/26 04:46:50;;;;;;;;;9.80;9.80;;;;;;;;5210169;28;9521;-72
2022/12/26 04:55:19;;;;;;;;;17.60;17.60;;;;;;;;5228985;28;8795;-71
2022/12/26 04:57:50;;;;;;;;;18.20;18.20;;;;;;;;5228005;28;8906;-70
2022/12/26 05:00:23;;;;;;;;;12.80;12.80;;;;;;;;5191634;28;8850;-70
2022/12/26 05:11:29;;;;;;;;;7.80;7.80;;;;;;;;5187802;28;8800;-72
2022/12/26 05:14:00;;;;;;;;;6.80;6.80;;;;;;;;5187836;28;8801;-71
2022/12/26 05:30:40;;;;;;;;;12.20;12.20;;;;;;;;5192290;28;8813;-72
2022/12/26 05:36:20;;;;;;;;;9.00;9.00;;;;;;;;5191629;28;8880;-72
2022/12/26 05:38:52;;;;;;;;;6.20;6.20;;;;;;;;5191807;28;8823;-72
2022/12/26 05:41:23;;;;;;;;;9.80;9.80;;;;;;;;5226048;28;8884;-72
2022/12/26 05:43:54;;;;;;;;;7.20;6.40;;;;;;;;5191855;28;8814;-72
2022/12/26 05:46:26;;;;;;;;;8.00;7.80;;;;;;;;5175433;28;8929;-71
2022/12/26 05:48:57;;;;;;;;;9.60;9.20;;;;;;;;5192299;28;8937;-71
2022/12/26 05:51:28;;;;;;;;;10.80;10.40;;;;;;;;5192909;28;8810;-72
2022/12/26 05:54:00;;;;;;;;;6.80;6.80;;;;;;;;5192649;28;8906;-72
2022/12/26 05:56:31;;;;;;;;;6.00;6.00;;;;;;;;5192722;28;8783;-71
2022/12/26 05:59:21;;;;;;;;;6.20;6.20;;;;;;;;5211678;28;8834;-75
2022/12/26 06:01:52;;;;;;;;;5.20;5.20;;;;;;;;5201309;28;8840;-72
2022/12/26 06:04:42;;;;;;;;;9.20;9.20;;;;;;;;5172447;28;8847;-69
2022/12/26 06:07:13;;;;;;;;;9.60;9.60;;;;;;;;5185968;28;9528;-71
2022/12/26 06:09:44;;;;;;;;;10.20;10.20;;;;;;;;5211114;28;8907;-70
2022/12/26 06:12:16;;;;;;;;;12.40;12.40;;;;;;;;5193397;28;8799;-71
2022/12/26 06:14:47;;;;;;;;;14.00;14.00;;;;;;;;5206118;28;8830;-72
2022/12/26 06:17:19;;;;;;;;;16.60;16.60;;;;;;;;5206365;28;8867;-74
2022/12/26 06:19:50;;;;;;;;;19.40;18.80;;;;;;;;5189580;28;8826;-72
2022/12/26 06:22:21;;;;;;;;;6.00;6.00;;;;;;;;5190252;28;8802;-72
2022/12/26 06:24:52;;;;;;;;;7.20;7.20;;;;;;;;5173261;28;8826;-72
2022/12/26 06:27:24;;;;;;;;;21.00;21.00;;;;;;;;5206269;28;8808;-72
2022/12/26 06:29:55;;;;;;;;;27.20;26.20;;;;;;;;5190154;28;8813;-72
2022/12/26 06:32:26;;;;;;;;;15.80;15.80;;;;;;;;5190175;28;8829;-71
2022/12/26 06:34:57;;;;;;;;;21.20;19.80;;;;;;;;5173377;28;8793;-68
2022/12/26 06:37:29;;;;;;;;;19.20;19.20;;;;;;;;5205506;28;8803;-69
2022/12/26 06:40:01;;;;;;;;;33.00;31.60;;;;;;;;5189866;28;8992;-72
2022/12/26 06:42:33;;;;;;;;;31.20;31.20;;;;;;;;5190387;28;8869;-71
2022/12/26 06:45:04;;;;;;;;;20.60;20.60;;;;;;;;5223519;28;8853;-73
2022/12/26 06:47:36;;;;;;;;;19.20;19.20;;;;;;;;5171133;28;8799;-73
2022/12/26 06:50:09;;;;;;;;;12.40;12.40;;;;;;;;5205279;28;8905;-73
2022/12/26 06:52:40;;;;;;;;;16.00;16.00;;;;;;;;5191532;28;8782;-73
2022/12/26 06:55:11;;;;;;;;;14.80;14.80;;;;;;;;5191801;28;8793;-72
2022/12/26 06:58:01;;;;;;;;;17.60;16.60;;;;;;;;5193598;28;8849;-73
2022/12/26 07:00:32;;;;;;;;;7.00;7.00;;;;;;;;5191387;28;8795;-73
2022/12/26 07:03:03;;;;;;;;;8.20;7.60;;;;;;;;5191421;28;8861;-72
2022/12/26 07:05:35;;;;;;;;;9.40;9.40;;;;;;;;5191171;28;9537;-73
2022/12/26 07:08:06;;;;;;;;;11.20;11.20;;;;;;;;5207434;28;8889;-73
2022/12/26 07:10:56;;;;;;;;;6.40;6.40;;;;;;;;5205484;28;8810;-73
2022/12/26 07:13:27;;;;;;;;;7.20;6.20;;;;;;;;5187713;28;8775;-72
2022/12/26 07:15:58;;;;;;;;;4.60;4.60;;;;;;;;5167803;28;8791;-72
2022/12/26 07:18:29;;;;;;;;;22.20;21.20;;;;;;;;5190947;28;9619;-73
2022/12/26 07:21:08;;;;;;;;;18.20;18.20;;;;;;;;5191080;28;8795;-72
2022/12/26 07:23:39;;;;;;;;;13.80;13.80;;;;;;;;5189860;28;9605;-72
2022/12/26 07:26:11;;;;;;;;;12.60;12.00;;;;;;;;5206083;28;8786;-73
2022/12/26 07:29:00;;;;;;;;;5.20;5.20;;;;;;;;5210621;28;8876;-73
2022/12/26 07:31:31;;;;;;;;;7.40;7.00;;;;;;;;5224166;28;8889;-72
2022/12/26 07:34:21;;;;;;;;;5.20;5.20;;;;;;;;5212998;28;8827;-76
2022/12/26 07:36:52;;;;;;;;;3.50;2.75;;;;;;;;5228496;28;8919;-70
2022/12/26 07:39:23;;;;;;;;;9.25;8.00;;;;;;;;5198627;28;11096;-73
2022/12/26 07:41:57;;;;;;;;;5.80;5.80;;;;;;;;5205807;28;10796;-73
2022/12/26 07:44:47;;;;;;;;;7.40;7.40;;;;;;;;5188629;28;8791;-73
2022/12/26 07:47:18;;;;;;;;;8.20;8.20;;;;;;;;5188592;28;8810;-74
2022/12/26 07:49:48;;;;;;;;;13.75;13.00;;;;;;;;5205444;28;8813;-73
2022/12/26 07:52:20;;;;;;;;;19.20;18.60;;;;;;;;5223850;28;11653;-72
2022/12/26 07:54:51;;;;;;;;;12.20;11.60;;;;;;;;5177494;28;8789;-72
2022/12/26 07:57:22;;;;;;;;;37.75;36.75;;;;;;;;5215008;28;8808;-73
2022/12/26 07:59:53;;;;;;;;;27.00;25.60;;;;;;;;5221832;28;10571;-71
2022/12/26 08:02:26;;;;;;;;;13.40;13.40;;;;;;;;5203085;28;9507;-71
2022/12/26 08:04:56;;;;;;;;;23.25;22.75;;;;;;;;5204710;28;8909;-71
2022/12/26 08:07:47;;;;;;;;;27.40;24.20;;;;;;;;5210474;28;8819;-68
2022/12/26 08:10:18;;;;;;;;;31.80;30.60;;;;;;;;5207954;28;8811;-73
2022/12/26 08:12:49;;;;;;;;;26.80;24.40;;;;;;;;5206877;28;8840;-72
2022/12/26 08:15:20;;;;;;;;;10.60;10.20;;;;;;;;5207975;28;8781;-72
2022/12/26 08:17:51;;;;;;;;;9.00;9.00;;;;;;;;5174766;28;9620;-73
2022/12/26 08:20:22;;;;;;;;;6.80;6.80;;;;;;;;5189525;28;11410;-73
2022/12/26 08:23:11;;;;;;;;;10.00;10.00;;;;;;;;5209410;28;8779;-73
2022/12/26 08:25:42;;;;;;;;;4.75;4.75;;;;;;;;5223054;28;8787;-73
2022/12/26 08:28:13;;;;;;;;;7.20;7.20;;;;;;;;5224929;28;8821;-72
2022/12/26 08:30:45;;;;;;;;;9.25;8.00;;;;;;;;5206951;28;8795;-71
2022/12/26 08:33:16;;;;;;;;;7.40;7.40;;;;;;;;5206928;28;8897;-73
2022/12/26 08:36:07;;;;;;;;;7.20;7.00;;;;;;;;5213782;28;9488;-72
2022/12/26 08:38:38;;;;;;;;;12.00;12.00;;;;;;;;5190143;28;9069;-72
2022/12/26 08:41:12;;;;;;;;;9.40;9.40;;;;;;;;5190153;28;8789;-70
2022/12/26 08:43:46;;;;;;;;;6.20;5.00;;;;;;;;5190261;28;8805;-71
2022/12/26 08:46:18;;;;;;;;;5.60;4.40;;;;;;;;5206052;28;8801;-72
2022/12/26 08:48:50;;;;;;;;;2.60;2.60;;;;;;;;5206270;28;9496;-72
2022/12/26 08:51:22;;;;;;;;;9.20;9.20;;;;;;;;5206031;28;8788;-73
2022/12/26 08:53:54;;;;;;;;;2.20;2.20;;;;;;;;5189524;28;9554;-73
2022/12/26 08:56:26;;;;;;;;;1.20;1.00;;;;;;;;5189272;28;8803;-73
2022/12/26 08:58:57;;;;;;;;;2.00;2.00;;;;;;;;5189621;28;8788;-73
2022/12/26 09:01:29;;;;;;;;;3.20;3.20;;;;;;;;5207169;28;8805;-73
2022/12/26 09:04:02;;;;;;;;;2.20;2.20;;;;;;;;5185175;28;8806;-71
2022/12/26 09:06:51;;;;;;;;;6.80;6.80;;;;;;;;5184960;28;9521;-74
2022/12/26 09:09:22;;;;;;;;;7.00;7.00;;;;;;;;5173077;28;8827;-72
2022/12/26 09:11:53;;;;;;;;;1.00;1.00;;;;;;;;5205878;28;8776;-72
2022/12/26 09:14:24;;;;;;;;;0.60;0.60;;;;;;;;5189401;28;8808;-72
2022/12/26 09:16:55;;;;;;;;;0.40;0.40;;;;;;;;5189125;28;8803;-73
2022/12/26 09:19:44;;;;;;;;;3.00;3.00;;;;;;;;5202558;28;8848;-72
2022/12/26 09:25:27;;;;;;;;;4.40;4.40;;;;;;;;5201039;28;8816;-75
2022/12/26 09:27:58;;;;;;;;;4.00;4.00;;;;;;;;5177221;28;8829;-74
2022/12/26 09:30:48;;;;;;;;;19.00;18.00;;;;;;;;5199178;28;9545;-73
2022/12/26 09:33:19;;;;;;;;;2.40;2.40;;;;;;;;5183575;28;8791;-73
2022/12/26 09:35:51;;;;;;;;;3.25;3.25;;;;;;;;5183077;28;9000;-72
2022/12/26 09:38:22;;;;;;;;;3.00;3.00;;;;;;;;5183231;28;12191;-75
2022/12/26 09:40:55;;;;;;;;;0.00;0.00;;;;;;;;5199776;28;8839;-71
2022/12/26 09:43:32;;;;;;;;;0.00;0.00;;;;;;;;5184203;28;8826;-74
2022/12/26 09:46:11;;;;;;;;;0.00;0.00;;;;;;;;5182807;28;8802;-74
2022/12/26 09:48:53;;;;;;;;;1.00;1.00;;;;;;;;5166852;28;8821;-74
2022/12/26 09:51:25;;;;;;;;;1.60;0.00;;;;;;;;5167423;28;8819;-73
2022/12/26 09:53:58;;;;;;;;;13.80;13.20;;;;;;;;5183047;28;8818;-74
2022/12/26 09:56:30;;;;;;;;;32.20;31.00;;;;;;;;5166965;28;9587;-74
2022/12/26 09:59:05;;;;;;;;;12.00;12.00;;;;;;;;5168036;28;8897;-72
2022/12/26 10:01:36;;;;;;;;;0.80;0.80;;;;;;;;5201778;28;8775;-73
2022/12/26 10:04:08;;;;;;;;;2.60;2.60;;;;;;;;5168707;28;8826;-72
2022/12/26 10:06:45;;;;;;;;;4.00;4.00;;;;;;;;5201064;28;8795;-73
2022/12/26 10:09:49;;;;;;;;;3.60;3.60;;;;;;;;5184738;28;9666;-73
2022/12/26 10:12:40;;;;;;;;;6.00;6.00;;;;;;;;5185635;28;8774;-73
2022/12/26 10:15:18;;;;;;;;;9.00;8.20;;;;;;;;5200894;28;8807;-73
2022/12/26 10:17:54;;;;;;;;;8.80;8.80;;;;;;;;5185547;28;8790;-72
2022/12/26 10:20:34;;;;;;;;;20.00;19.00;;;;;;;;5184427;28;8822;-72
2022/12/26 10:23:24;;;;;;;;;15.60;14.20;;;;;;;;5167645;28;8848;-72
2022/12/26 10:26:16;;;;;;;;;4.40;4.40;;;;;;;;5186298;28;8790;-73
2022/12/26 10:28:55;;;;;;;;;12.20;12.20;;;;;;;;5184616;28;8864;-72
2022/12/26 10:31:29;;;;;;;;;18.80;18.80;;;;;;;;5201783;28;8806;-73
2022/12/26 10:34:07;;;;;;;;;14.00;13.00;;;;;;;;5186539;28;8786;-73
2022/12/26 10:36:45;;;;;;;;;11.00;11.00;;;;;;;;5184673;28;8783;-71
2022/12/26 10:39:35;;;;;;;;;68.80;55.40;;;;;;;;5184079;28;8826;-74
2022/12/26 10:42:35;;;;;;;;;9.20;9.20;;;;;;;;5184012;28;8803;-74
2022/12/26 10:45:15;;;;;;;;;3.00;3.00;;;;;;;;5177012;28;8808;-74
2022/12/26 10:47:48;;;;;;;;;8.60;8.60;;;;;;;;5183908;28;8791;-70
2022/12/26 10:50:24;;;;;;;;;15.20;14.80;;;;;;;;5183874;28;8787;-73
2022/12/26 10:52:56;;;;;;;;;40.40;38.20;;;;;;;;5183751;28;8779;-73
2022/12/26 10:55:46;;;;;;;;;19.00;18.00;;;;;;;;5183995;28;8779;-73
2022/12/26 10:58:19;;;;;;;;;39.00;39.00;;;;;;;;5202831;28;9553;-73
2022/12/26 11:00:49;;;;;;;;;13.80;13.80;;;;;;;;5203851;28;11548;-71
2022/12/26 11:03:21;;;;;;;;;7.60;7.60;;;;;;;;5189155;28;8800;-73
2022/12/26 11:06:11;;;;;;;;;3.00;2.80;;;;;;;;5208244;28;8771;-71
2022/12/26 11:08:49;;;;;;;;;5.20;5.20;;;;;;;;5208585;28;8823;-70
2022/12/26 11:11:22;;;;;;;;;8.00;8.00;;;;;;;;5208901;28;8938;-72
2022/12/26 11:13:57;;;;;;;;;9.40;9.40;;;;;;;;5205445;28;8850;-73
2022/12/26 11:16:39;;;;;;;;;4.00;4.00;;;;;;;;5225406;28;8820;-73
2022/12/26 11:19:25;;;;;;;;;4.20;4.20;;;;;;;;5206131;28;8823;-75
2022/12/26 11:22:22;;;;;;;;;15.80;15.80;;;;;;;;5189712;28;8795;-74
2022/12/26 11:25:05;;;;;;;;;9.00;9.00;;;;;;;;5186007;28;8817;-71
2022/12/26 11:27:37;;;;;;;;;36.40;36.20;;;;;;;;5187699;28;8807;-74
2022/12/26 11:30:15;;;;;;;;;18.20;18.20;;;;;;;;5186605;28;8805;-72
2022/12/26 11:33:04;;;;;;;;;32.20;30.80;;;;;;;;5203406;28;8791;-71
2022/12/26 11:36:02;;;;;;;;;17.00;16.80;;;;;;;;5193569;28;8802;-73
2022/12/26 11:38:43;;;;;;;;;23.80;22.60;;;;;;;;5191374;28;8786;-71
2022/12/26 11:44:24;;;;;;;;;20.80;20.60;;;;;;;;5141781;28;8825;-72
2022/12/26 11:47:05;;;;;;;;;10.00;9.40;;;;;;;;5168108;28;8803;-72
2022/12/26 11:49:48;;;;;;;;;6.60;6.60;;;;;;;;5191431;28;8771;-73
2022/12/26 11:52:31;;;;;;;;;18.40;18.20;;;;;;;;5190988;28;9506;-73
2022/12/26 11:55:23;;;;;;;;;12.60;12.60;;;;;;;;5207565;28;8905;-72
2022/12/26 11:58:00;;;;;;;;;12.60;12.60;;;;;;;;5191612;28;8783;-72
2022/12/26 12:00:33;;;;;;;;;36.00;34.40;;;;;;;;5189067;28;8801;-74
2022/12/26 12:03:10;;;;;;;;;20.40;20.40;;;;;;;;5195025;28;9539;-72
2022/12/26 12:05:51;;;;;;;;;13.80;13.80;;;;;;;;5195030;28;8819;-73
2022/12/26 12:08:33;;;;;;;;;10.60;10.60;;;;;;;;5228235;28;9670;-73
2022/12/26 12:11:28;;;;;;;;;0.00;0.00;;;;;;;;5193327;28;8936;-72
2022/12/26 12:14:11;;;;;;;;;12.60;12.60;;;;;;;;5174328;28;8817;-73
2022/12/26 12:16:42;;;;;;;;;4.80;4.80;;;;;;;;5208185;28;8870;-73
2022/12/26 12:19:32;;;;;;;;;2.20;2.20;;;;;;;;5190418;28;9666;-73
2022/12/26 12:22:22;;;;;;;;;6.00;6.00;;;;;;;;5190624;28;8858;-73
2022/12/26 12:25:10;;;;;;;;;6.00;6.00;;;;;;;;5202234;28;8779;-72
2022/12/26 12:27:46;;;;;;;;;3.40;3.40;;;;;;;;5210642;28;8922;-73
2022/12/26 12:30:29;;;;;;;;;12.40;12.40;;;;;;;;5210725;28;8794;-73
2022/12/26 12:33:06;;;;;;;;;6.80;6.80;;;;;;;;5210497;28;9660;-73
2022/12/26 12:35:37;;;;;;;;;10.00;10.00;;;;;;;;5194677;28;8909;-72
2022/12/26 12:38:14;;;;;;;;;14.00;12.00;;;;;;;;5210672;28;9660;-71
2022/12/26 12:40:54;;;;;;;;;23.00;21.40;;;;;;;;5194018;28;8811;-73
2022/12/26 12:43:31;;;;;;;;;27.00;25.80;;;;;;;;5210285;28;8871;-73
2022/12/26 12:46:11;;;;;;;;;29.80;28.40;;;;;;;;5210837;28;8755;-74
2022/12/26 12:48:42;;;;;;;;;24.80;21.80;;;;;;;;5194230;28;8794;-72
2022/12/26 12:51:20;;;;;;;;;21.60;21.40;;;;;;;;5193819;28;8813;-72
2022/12/26 12:53:58;;;;;;;;;15.40;12.40;;;;;;;;5210241;28;8807;-73
2022/12/26 12:56:47;;;;;;;;;14.20;13.60;;;;;;;;5210822;28;8779;-73
2022/12/26 12:59:55;;;;;;;;;14.00;13.00;;;;;;;;5212791;28;9613;-72
2022/12/26 13:02:34;;;;;;;;;11.80;11.80;;;;;;;;5207028;28;8818;-73
2022/12/26 13:05:11;;;;;;;;;24.80;24.40;;;;;;;;5193346;28;8802;-73
2022/12/26 13:07:46;;;;;;;;;25.00;25.00;;;;;;;;5227950;28;8795;-73
2022/12/26 13:10:22;;;;;;;;;29.00;27.80;;;;;;;;5193409;28;8802;-73
2022/12/26 13:12:54;;;;;;;;;15.80;15.80;;;;;;;;5209792;28;8779;-73
2022/12/26 13:15:25;;;;;;;;;6.40;6.40;;;;;;;;5209328;28;8963;-72
2022/12/26 13:18:01;;;;;;;;;6.25;6.25;;;;;;;;5210214;28;8913;-71
2022/12/26 13:20:46;;;;;;;;;11.40;11.40;;;;;;;;5208920;28;10577;-72
2022/12/26 13:26:09;;;;;;;;;10.00;10.00;;;;;;;;5209789;28;8787;-73
2022/12/26 13:28:50;;;;;;;;;18.80;18.60;;;;;;;;5209651;28;8802;-72
2022/12/26 13:31:21;;;;;;;;;14.60;14.60;;;;;;;;5193288;28;9502;-71
2022/12/26 13:34:15;;;;;;;;;10.60;10.60;;;;;;;;5194944;28;9545;-73
2022/12/26 13:36:48;;;;;;;;;18.20;16.60;;;;;;;;5192733;28;8818;-72
2022/12/26 13:39:21;;;;;;;;;26.40;26.40;;;;;;;;5193109;28;8818;-72
2022/12/26 13:44:51;;;;;;;;;22.00;18.40;;;;;;;;5231513;28;8786;-71
2022/12/26 13:47:34;;;;;;;;;27.00;27.00;;;;;;;;5205748;28;8995;-72
2022/12/26 13:50:23;;;;;;;;;18.80;18.80;;;;;;;;5206794;28;8890;-73
2022/12/26 13:52:55;;;;;;;;;15.60;15.60;;;;;;;;5218590;28;8852;-73
2022/12/26 13:55:29;;;;;;;;;13.40;13.40;;;;;;;;5193687;28;9485;-72
2022/12/26 13:58:27;;;;;;;;;9.00;9.00;;;;;;;;5228052;28;8811;-72
2022/12/26 14:01:05;;;;;;;;;21.40;21.40;;;;;;;;5191092;28;8818;-72
2022/12/26 14:03:51;;;;;;;;;29.60;28.80;;;;;;;;5192705;28;8884;-72
2022/12/26 14:06:34;;;;;;;;;47.20;44.00;;;;;;;;5192268;28;8791;-73
2022/12/26 14:09:38;;;;;;;;;51.00;46.20;;;;;;;;5190933;28;8789;-73
2022/12/26 14:12:09;;;;;;;;;41.80;40.60;;;;;;;;5206201;28;8862;-72
2022/12/26 14:15:02;;;;;;;;;52.00;47.40;;;;;;;;5172748;28;8773;-71
2022/12/26 14:17:52;;;;;;;;;38.20;35.40;;;;;;;;5208242;28;8827;-73
2022/12/26 14:20:23;;;;;;;;;45.80;42.40;;;;;;;;5206409;28;8829;-72
2022/12/26 14:22:54;;;;;;;;;56.75;48.00;;;;;;;;5206373;28;8810;-72
2022/12/26 14:25:29;;;;;;;;;54.60;46.60;;;;;;;;5189907;28;8853;-73
2022/12/26 14:28:15;;;;;;;;;47.80;44.40;;;;;;;;5205086;28;8921;-74
2022/12/26 14:31:04;;;;;;;;;75.80;61.40;;;;;;;;5236398;28;8849;-73
2022/12/26 14:33:48;;;;;;;;;49.00;42.00;;;;;;;;5233742;28;8807;-72
2022/12/26 14:37:00;;;;;;;;;31.20;27.80;;;;;;;;5178126;28;11562;-72
2022/12/26 14:39:31;;;;;;;;;35.00;34.80;;;;;;;;5171569;28;8817;-71
2022/12/26 14:44:56;;;;;;;;;29.20;29.20;;;;;;;;5190469;28;8822;-71
2022/12/26 14:47:36;;;;;;;;;27.40;27.20;;;;;;;;5210108;28;8805;-72
2022/12/26 14:50:26;;;;;;;;;36.20;35.20;;;;;;;;5220117;28;8849;-72
2022/12/26 14:53:15;;;;;;;;;68.60;51.40;;;;;;;;5205860;28;8771;-72
2022/12/26 14:56:12;;;;;;;;;38.60;35.80;;;;;;;;5224503;28;8795;-72
2022/12/26 14:59:17;;;;;;;;;40.60;39.60;;;;;;;;5191753;28;8787;-72
2022/12/26 15:01:58;;;;;;;;;23.20;23.20;;;;;;;;5206455;28;8987;-73
2022/12/26 15:04:29;;;;;;;;;15.00;15.00;;;;;;;;5206274;28;8829;-71
2022/12/26 15:07:00;;;;;;;;;6.00;6.00;;;;;;;;5205404;28;8767;-71
2022/12/26 15:09:49;;;;;;;;;13.00;10.00;;;;;;;;5188689;28;12229;-71
2022/12/26 15:12:23;;;;;;;;;22.40;20.80;;;;;;;;5189621;28;11600;-71
2022/12/26 15:14:54;;;;;;;;;6.60;6.60;;;;;;;;5205905;28;8802;-71
2022/12/26 15:17:37;;;;;;;;;15.00;15.00;;;;;;;;5221728;28;8806;-72
2022/12/26 15:20:27;;;;;;;;;16.60;16.40;;;;;;;;5218489;28;11509;-70
2022/12/26 15:23:48;;;;;;;;;65.20;49.00;;;;;;;;5215006;28;8799;-73
2022/12/26 15:26:22;;;;;;;;;37.20;32.80;;;;;;;;5195206;28;8797;-72
2022/12/26 15:29:32;;;;;;;;;41.40;39.00;;;;;;;;5198908;28;8822;-72
2022/12/26 15:32:09;;;;;;;;;22.60;18.60;;;;;;;;5162271;28;8815;-72
2022/12/26 15:34:46;;;;;;;;;13.80;13.80;;;;;;;;5189733;28;9486;-71
2022/12/26 15:37:20;;;;;;;;;12.20;11.40;;;;;;;;5206528;28;8795;-71
2022/12/26 15:39:57;;;;;;;;;15.60;15.40;;;;;;;;5190320;28;8827;-75
2022/12/26 15:42:28;;;;;;;;;11.80;11.00;;;;;;;;5189522;28;8809;-73
2022/12/26 15:45:03;;;;;;;;;9.80;9.80;;;;;;;;5191811;28;8864;-71
2022/12/26 15:47:50;;;;;;;;;15.40;14.80;;;;;;;;5174386;28;8822;-71
2022/12/26 15:50:45;;;;;;;;;26.40;26.20;;;;;;;;5163244;28;8795;-71
2022/12/26 15:53:35;;;;;;;;;15.20;15.00;;;;;;;;5190193;28;8822;-70
2022/12/26 15:56:06;;;;;;;;;31.00;29.00;;;;;;;;5211287;28;8795;-71
2022/12/26 15:58:43;;;;;;;;;19.50;19.50;;;;;;;;5194879;28;12166;-68
2022/12/26 16:01:38;;;;;;;;;21.80;21.20;;;;;;;;5197552;28;8795;-69
2022/12/26 16:04:28;;;;;;;;;18.40;18.40;;;;;;;;5190356;28;8812;-71
2022/12/26 16:07:20;;;;;;;;;13.40;13.40;;;;;;;;5208444;28;9531;-71
2022/12/26 16:09:55;;;;;;;;;20.60;19.20;;;;;;;;5183255;28;8810;-73
2022/12/26 16:12:51;;;;;;;;;12.40;10.80;;;;;;;;5202679;28;8830;-70
2022/12/26 16:15:25;;;;;;;;;11.80;11.40;;;;;;;;5176435;28;8970;-73
2022/12/26 16:18:16;;;;;;;;;19.00;19.00;;;;;;;;5207407;28;8828;-71
2022/12/26 16:23:56;;;;;;;;;11.20;10.40;;;;;;;;5208212;28;8828;-72
2022/12/26 16:26:29;;;;;;;;;14.20;14.20;;;;;;;;5170245;28;8849;-74
2022/12/26 16:29:00;;;;;;;;;14.20;13.40;;;;;;;;5205856;28;8784;-74
2022/12/26 16:31:32;;;;;;;;;13.20;12.80;;;;;;;;5205432;28;8959;-73
2022/12/26 16:34:06;;;;;;;;;14.60;14.60;;;;;;;;5206918;28;8807;-71
2022/12/26 16:36:38;;;;;;;;;24.20;21.20;;;;;;;;5206322;28;8781;-71
2022/12/26 16:39:28;;;;;;;;;7.40;7.40;;;;;;;;5208041;28;8823;-71
2022/12/26 16:42:00;;;;;;;;;13.00;13.00;;;;;;;;5206779;28;9507;-70
2022/12/26 16:44:54;;;;;;;;;13.40;12.40;;;;;;;;5207845;28;9645;-70
2022/12/26 16:47:43;;;;;;;;;12.80;12.80;;;;;;;;5206749;28;8804;-72
2022/12/26 16:50:20;;;;;;;;;9.40;9.40;;;;;;;;5190315;28;8792;-70
2022/12/26 16:53:03;;;;;;;;;15.20;15.20;;;;;;;;5206414;28;8898;-71
2022/12/26 16:55:49;;;;;;;;;15.60;15.60;;;;;;;;5188683;28;8785;-71
2022/12/26 16:58:26;;;;;;;;;13.40;12.80;;;;;;;;5190525;28;9492;-72
2022/12/26 17:01:04;;;;;;;;;10.60;10.60;;;;;;;;5206886;28;9586;-70
2022/12/26 17:03:35;;;;;;;;;15.25;14.50;;;;;;;;5193508;28;8842;-72
2022/12/26 17:06:13;;;;;;;;;28.00;26.00;;;;;;;;5224689;28;10269;-72
2022/12/26 17:08:46;;;;;;;;;21.60;21.60;;;;;;;;5193810;28;8787;-72
2022/12/26 17:11:47;;;;;;;;;20.00;20.00;;;;;;;;5194782;28;8835;-75
2022/12/26 17:14:24;;;;;;;;;23.60;21.80;;;;;;;;5197299;28;8917;-73
2022/12/26 17:16:56;;;;;;;;;12.40;12.20;;;;;;;;5206690;28;8817;-74
2022/12/26 17:19:28;;;;;;;;;16.80;16.80;;;;;;;;5189585;28;8824;-71
2022/12/26 17:22:16;;;;;;;;;9.00;9.00;;;;;;;;5156720;28;8859;-73
2022/12/26 17:24:48;;;;;;;;;12.00;12.00;;;;;;;;5173540;28;8801;-73
2022/12/26 17:27:22;;;;;;;;;16.20;16.00;;;;;;;;5173394;28;8819;-72
2022/12/26 17:30:17;;;;;;;;;11.00;11.00;;;;;;;;5211249;28;8834;-73
2022/12/26 17:32:48;;;;;;;;;22.40;22.00;;;;;;;;5224326;28;8812;-75
2022/12/26 17:35:27;;;;;;;;;17.20;15.80;;;;;;;;5206927;28;9538;-72
2022/12/26 17:38:03;;;;;;;;;16.00;15.20;;;;;;;;5191221;28;8805;-74
2022/12/26 17:40:45;;;;;;;;;11.40;11.00;;;;;;;;5197217;28;8851;-71
2022/12/26 17:43:51;;;;;;;;;18.00;18.00;;;;;;;;5211021;28;9521;-71
2022/12/26 17:46:22;;;;;;;;;7.00;7.00;;;;;;;;5219678;28;8777;-73
2022/12/26 17:48:53;;;;;;;;;13.00;13.00;;;;;;;;5205220;28;8800;-72
2022/12/26 17:51:24;;;;;;;;;14.50;14.00;;;;;;;;5204703;28;11415;-73
2022/12/26 17:53:55;;;;;;;;;13.00;13.00;;;;;;;;5212987;28;11503;-72
2022/12/26 17:56:26;;;;;;;;;8.40;8.40;;;;;;;;5208473;28;8791;-75
2022/12/26 17:59:15;;;;;;;;;7.40;7.40;;;;;;;;5191178;28;8856;-73
2022/12/26 18:01:46;;;;;;;;;8.00;7.50;;;;;;;;5172322;28;8769;-71
2022/12/26 18:04:17;;;;;;;;;15.25;15.25;;;;;;;;5205807;28;11401;-70
2022/12/26 18:06:49;;;;;;;;;16.25;15.75;;;;;;;;5188404;28;11459;-70
2022/12/26 18:09:24;;;;;;;;;11.60;11.60;;;;;;;;5184601;28;9623;-71